Time;durP1;ratioP1;P1;durP2;ratioP2;P2;SDS_P1;SDS_P2;PMS_P1;PMS_P2;Temp;Humidity;BMP_temperature;BMP_pressure;BME280_temperature;BME280_humidity;BME280_pressure;Samples;Min_cycle;Max_cycle;Signal;HPM_P1;HPM_P2
2022/10/08 00:00:25;;;;;;;;;;;;;;;15.00;77.28;100860.44;4147932;28;20501;-65
2022/10/08 00:02:29;;;;;;;16.05;7.43;;;;;;;15.06;77.14;100853.50;4131357;28;19921;-65
2022/10/08 00:04:32;;;;;;;14.00;7.20;;;;;;;15.09;77.16;100859.59;4148420;28;20038;-65
2022/10/08 00:06:35;;;;;;;11.68;7.47;;;;;;;15.10;77.54;100855.22;4153710;28;20510;-65
2022/10/08 00:08:40;;;;;;;12.73;6.88;;;;;;;15.13;77.53;100860.50;4147347;28;20380;-65
2022/10/08 00:10:52;;;;;;;15.25;7.05;;;;;;;15.13;77.40;100855.25;4152088;28;20431;-65
2022/10/08 00:12:55;;;;;;;13.70;7.63;;;;;;;15.11;77.19;100854.34;4146900;28;20042;-65
2022/10/08 00:14:57;;;;;;;13.82;7.65;;;;;;;15.14;77.16;100857.88;4164040;28;20080;-65
2022/10/08 00:17:00;;;;;;;14.02;7.35;;;;;;;15.13;77.10;100856.13;4161668;28;20136;-65
2022/10/08 00:19:06;;;;;;;14.07;7.50;;;;;;;15.13;77.30;100856.13;4141011;28;20096;-65
2022/10/08 00:21:13;;;;;;;11.05;6.70;;;;;;;15.11;77.44;100857.88;4146759;28;20117;-65
2022/10/08 00:23:16;;;;;;;10.70;6.85;;;;;;;15.11;77.65;100864.84;4163742;28;20095;-65
2022/10/08 00:25:19;;;;;;;9.95;6.13;;;;;;;15.16;77.23;100863.13;4163179;28;20450;-65
2022/10/08 00:27:23;;;;;;;12.05;7.28;;;;;;;15.14;77.19;100856.97;4142185;28;20077;-65
2022/10/08 00:29:25;;;;;;;13.57;7.20;;;;;;;15.14;77.99;100854.38;4161127;28;20037;-65
2022/10/08 00:31:31;;;;;;;12.77;7.70;;;;;;;15.17;77.65;100863.13;4164396;28;20072;-66
2022/10/08 00:33:34;;;;;;;11.85;7.15;;;;;;;15.15;77.83;100858.75;4145682;28;20038;-65
2022/10/08 00:35:40;;;;;;;13.20;6.93;;;;;;;15.15;78.07;100850.88;4154123;28;20092;-65
2022/10/08 00:37:42;;;;;;;14.60;8.25;;;;;;;15.14;77.41;100856.97;4146352;28;20042;-65
2022/10/08 00:39:45;;;;;;;13.15;7.25;;;;;;;15.16;77.49;100857.88;4149163;28;20034;-65
2022/10/08 00:41:51;;;;;;;16.85;8.00;;;;;;;15.15;77.46;100858.75;4146636;28;20050;-65
2022/10/08 00:43:56;;;;;;;14.13;7.85;;;;;;;15.16;77.17;100858.75;4144966;28;20064;-65
2022/10/08 00:45:58;;;;;;;16.15;7.53;;;;;;;15.13;77.69;100857.88;4153401;28;20065;-65
2022/10/08 00:48:01;;;;;;;13.13;8.57;;;;;;;15.14;77.42;100856.97;4146568;28;20046;-65
2022/10/08 00:50:10;;;;;;;10.90;6.40;;;;;;;15.15;77.48;100858.75;4163904;28;20479;-65
2022/10/08 00:52:15;;;;;;;12.52;6.43;;;;;;;15.12;78.05;100859.59;4153263;28;20506;-65
2022/10/08 00:54:20;;;;;;;11.60;6.18;;;;;;;15.07;77.90;100869.22;4143847;28;20046;-65
2022/10/08 00:56:24;;;;;;;11.15;5.85;;;;;;;15.04;78.08;100860.44;4140696;28;20038;-65
2022/10/08 00:58:28;;;;;;;11.80;6.13;;;;;;;15.04;78.15;100866.59;4159970;28;20029;-65
2022/10/08 01:00:32;;;;;;;16.60;7.80;;;;;;;15.08;77.67;100856.97;4146525;28;20112;-65
2022/10/08 01:02:35;;;;;;;;;;;;;;;14.96;78.72;100853.44;4164136;28;20380;-65
2022/10/08 01:04:39;;;;;;;13.32;6.80;;;;;;;15.00;78.34;100844.75;4163476;28;19921;-65
2022/10/08 01:06:50;;;;;;;11.57;5.88;;;;;;;15.04;78.62;100856.13;4157156;28;20038;-65
2022/10/08 01:09:01;;;;;;;10.93;6.18;;;;;;;15.05;78.17;100856.97;4143982;28;20050;-65
2022/10/08 01:11:19;;;;;;;11.13;6.03;;;;;;;15.06;78.45;100851.75;4158023;28;20030;-66
2022/10/08 01:13:35;;;;;;;13.55;6.32;;;;;;;15.05;78.09;100854.34;4162841;28;20041;-65
2022/10/08 01:15:42;;;;;;;16.02;7.53;;;;;;;15.05;78.01;100855.22;4145940;28;20034;-65
2022/10/08 01:17:51;;;;;;;14.52;7.40;;;;;;;15.07;77.94;100847.38;4162841;28;20100;-65
2022/10/08 01:20:30;;;;;;;12.85;7.75;;;;;;;15.12;77.74;100856.13;4155867;28;20072;-65
2022/10/08 01:22:45;;;;;;;14.02;7.78;;;;;;;15.10;77.92;100853.50;4163457;28;20071;-65
2022/10/08 01:27:20;;;;;;;12.27;6.22;;;;;;;15.07;78.38;100860.44;4147639;28;20043;-65
2022/10/08 01:29:28;;;;;;;14.30;7.13;;;;;;;15.06;78.10;100850.88;4147975;28;20080;-65
2022/10/08 01:31:35;;;;;;;14.75;7.00;;;;;;;15.05;77.73;100862.22;4169133;28;20087;-65
2022/10/08 01:33:45;;;;;;;12.63;8.05;;;;;;;15.06;77.88;100863.97;4160794;28;20510;-65
2022/10/08 01:35:55;;;;;;;10.65;7.03;;;;;;;15.04;78.60;100863.06;4160795;28;20484;-65
2022/10/08 01:38:02;;;;;;;15.77;7.13;;;;;;;15.01;78.25;100862.22;4163780;28;20128;-66
2022/10/08 01:40:11;;;;;;;14.95;6.53;;;;;;;15.01;78.36;100872.69;4169016;28;20033;-65
2022/10/08 01:42:17;;;;;;;10.77;6.75;;;;;;;14.97;78.71;100860.44;4169196;28;20041;-65
2022/10/08 01:44:26;;;;;;;10.82;6.63;;;;;;;15.00;78.13;100860.44;4159459;28;20041;-65
2022/10/08 01:46:31;;;;;;;10.48;7.07;;;;;;;15.01;78.08;100866.59;4166132;28;20049;-65
2022/10/08 01:48:39;;;;;;;10.95;6.57;;;;;;;15.03;78.46;100861.34;4167389;28;20399;-65
2022/10/08 01:50:49;;;;;;;12.30;6.85;;;;;;;15.05;77.84;100870.06;4160985;28;20038;-65
2022/10/08 01:52:57;;;;;;;15.75;7.30;;;;;;;15.04;78.74;100870.94;4166961;28;20442;-65
2022/10/08 01:55:05;;;;;;;15.85;7.40;;;;;;;15.04;78.36;100860.44;4165491;28;20462;-66
2022/10/08 01:57:10;;;;;;;11.90;6.72;;;;;;;15.06;78.24;100866.59;4162415;28;20037;-66
2022/10/08 01:59:16;;;;;;;17.00;6.78;;;;;;;15.05;78.36;100862.22;4149240;28;20041;-65
2022/10/08 02:01:28;;;;;;;12.88;7.47;;;;;;;15.05;77.71;100855.22;4168985;28;20517;-65
2022/10/08 02:03:31;;;;;;;11.00;6.50;;;;;;;15.03;77.79;100859.59;4168191;28;20056;-66
2022/10/08 02:05:37;;;;;;;12.27;6.40;;;;;;;15.05;78.42;100856.97;4168259;28;20069;-66
2022/10/08 02:07:42;;;;;;;16.88;7.72;;;;;;;15.01;77.89;100854.34;4167840;28;20064;-66
2022/10/08 02:09:47;;;;;;;18.40;8.90;;;;;;;14.99;78.17;100853.47;4160804;28;20389;-65
2022/10/08 02:11:49;;;;;;;15.55;9.07;;;;;;;14.96;78.72;100858.69;4162629;28;20091;-66
2022/10/08 02:13:52;;;;;;;16.83;8.57;;;;;;;15.02;78.27;100863.06;4168261;28;20045;-65
2022/10/08 02:16:05;;;;;;;11.07;7.43;;;;;;;14.98;78.31;100856.97;4168834;28;20041;-66
2022/10/08 02:18:13;;;;;;;12.75;6.97;;;;;;;14.94;78.57;100863.06;4168578;28;20053;-66
2022/10/08 02:20:21;;;;;;;18.20;8.05;;;;;;;14.97;78.19;100859.59;4129577;28;20046;-66
2022/10/08 02:22:31;;;;;;;13.70;6.90;;;;;;;14.92;77.82;100859.56;4162236;28;20037;-65
2022/10/08 02:24:40;;;;;;;19.30;7.90;;;;;;;14.90;78.58;100849.97;4150330;28;20046;-66
2022/10/08 02:26:47;;;;;;;14.80;7.30;;;;;;;14.88;78.36;100857.81;4163425;28;20041;-65
2022/10/08 02:28:57;;;;;;;14.60;7.72;;;;;;;14.89;78.11;100861.28;4168894;28;20037;-66
2022/10/08 02:31:05;;;;;;;11.73;7.05;;;;;;;14.85;78.53;100852.56;4167816;28;20045;-66
2022/10/08 02:33:14;;;;;;;13.68;7.78;;;;;;;14.84;78.30;100859.53;4161469;28;20034;-65
2022/10/08 02:35:24;;;;;;;13.20;7.47;;;;;;;14.82;78.44;100861.28;4161463;28;20478;-65
2022/10/08 02:37:32;;;;;;;12.75;7.97;;;;;;;14.82;78.32;100850.81;4166279;28;20057;-66
2022/10/08 02:39:39;;;;;;;10.98;6.85;;;;;;;14.80;77.84;100863.00;4140791;28;20042;-65
2022/10/08 02:41:46;;;;;;;16.85;7.28;;;;;;;14.78;78.36;100863.88;4166020;28;20046;-66
2022/10/08 02:43:51;;;;;;;15.10;7.60;;;;;;;14.79;78.81;100863.00;4164053;28;20391;-65
2022/10/08 02:46:00;;;;;;;11.65;6.65;;;;;;;14.79;78.57;100866.50;4140251;28;20046;-65
2022/10/08 02:48:08;;;;;;;10.63;7.68;;;;;;;14.77;78.77;100872.59;4155133;28;20033;-65
2022/10/08 02:50:21;;;;;;;16.45;7.55;;;;;;;14.76;78.67;100881.31;4166075;28;20071;-65
2022/10/08 02:52:27;;;;;;;12.23;7.82;;;;;;;14.75;78.16;100872.59;4159960;28;20058;-66
2022/10/08 02:54:33;;;;;;;12.32;8.20;;;;;;;14.75;78.18;100869.13;4138850;28;20445;-66
2022/10/08 02:56:41;;;;;;;14.73;9.23;;;;;;;14.74;78.64;100872.59;4166065;28;20044;-65
2022/10/08 02:58:45;;;;;;;13.50;8.18;;;;;;;14.74;78.59;100875.22;4148322;28;20489;-65
2022/10/08 03:00:52;;;;;;;12.63;7.88;;;;;;;14.71;77.79;100872.59;4148502;28;20046;-65
2022/10/08 03:03:02;;;;;;;12.10;7.93;;;;;;;14.70;78.77;100871.69;4146031;28;20451;-65
2022/10/08 03:05:09;;;;;;;13.65;6.80;;;;;;;14.66;78.29;100880.44;4146780;28;20037;-65
2022/10/08 03:07:14;;;;;;;13.38;6.30;;;;;;;14.66;78.62;100877.81;4147794;28;20037;-66
2022/10/08 03:09:18;;;;;;;11.57;6.22;;;;;;;14.63;78.57;100880.38;4140763;28;20050;-65
2022/10/08 03:11:22;;;;;;;9.50;6.45;;;;;;;14.60;78.04;100886.47;4149529;28;20046;-65
2022/10/08 03:13:26;;;;;;;13.13;7.40;;;;;;;14.57;78.45;100885.56;4139358;28;20803;-65
2022/10/08 03:15:31;;;;;;;13.52;7.75;;;;;;;14.55;78.45;100889.94;4147679;28;20917;-65
2022/10/08 03:17:39;;;;;;;18.95;7.80;;;;;;;14.53;77.96;100889.91;4133902;28;20093;-66
2022/10/08 03:19:42;;;;;;;12.32;7.88;;;;;;;14.51;78.75;100896.00;4131958;28;20069;-66
2022/10/08 03:21:46;;;;;;;12.55;6.75;;;;;;;14.48;78.52;100891.63;4149386;28;20038;-65
2022/10/08 03:23:51;;;;;;;13.15;7.20;;;;;;;14.46;78.20;100894.22;4131136;28;20364;-65
2022/10/08 03:25:53;;;;;;;10.70;7.32;;;;;;;14.42;78.69;100896.84;4149634;28;20611;-65
2022/10/08 03:27:56;;;;;;;15.90;7.32;;;;;;;14.43;78.33;100904.69;4146735;28;20476;-65
2022/10/08 03:29:59;;;;;;;13.05;7.07;;;;;;;14.45;77.92;100896.84;4131924;28;20081;-65
2022/10/08 03:32:02;;;;;;;15.27;7.53;;;;;;;14.44;78.60;100905.56;4149140;28;20045;-66
2022/10/08 03:34:05;;;;;;;7.50;5.50;;;;;;;14.42;78.50;100909.91;4148035;28;20068;-66
2022/10/08 03:36:07;;;;;;;11.55;6.88;;;;;;;14.35;78.21;100906.38;4157098;28;20042;-66
2022/10/08 03:38:10;;;;;;;14.02;6.40;;;;;;;14.38;78.71;100915.97;4145563;28;20089;-66
2022/10/08 03:40:15;;;;;;;10.88;6.45;;;;;;;14.40;77.96;100914.28;4165693;28;20049;-66
2022/10/08 03:42:18;;;;;;;12.32;7.18;;;;;;;14.36;78.37;100913.38;4163806;28;20037;-66
2022/10/08 03:44:20;;;;;;;11.77;5.38;;;;;;;14.39;77.55;100912.50;4162713;28;20046;-66
2022/10/08 03:46:23;;;;;;;8.80;5.15;;;;;;;14.39;77.19;100910.75;4147455;28;20518;-66
2022/10/08 03:48:26;;;;;;;12.00;5.53;;;;;;;14.43;77.08;100909.06;4136383;28;20037;-66
2022/10/08 03:50:29;;;;;;;8.32;4.93;;;;;;;14.43;77.05;100909.06;4131033;28;20038;-66
2022/10/08 03:52:31;;;;;;;11.43;5.20;;;;;;;14.43;76.88;100914.28;4162614;28;20150;-66
2022/10/08 03:54:35;;;;;;;12.40;5.30;;;;;;;14.41;76.74;100916.00;4129937;28;20045;-65
2022/10/08 03:56:39;;;;;;;15.07;6.25;;;;;;;14.40;77.17;100919.50;4145959;28;20088;-66
2022/10/08 03:58:42;;;;;;;11.27;5.80;;;;;;;14.36;77.48;100922.97;4163808;28;20385;-66
2022/10/08 04:00:56;;;;;;;9.00;6.10;;;;;;;14.34;77.13;100929.91;4141652;28;20099;-66
2022/10/08 04:02:59;;;;;;;10.07;5.80;;;;;;;14.27;77.92;100931.63;4164692;28;20042;-66
2022/10/08 04:05:02;;;;;;;13.05;5.93;;;;;;;14.23;77.43;100933.31;4163773;28;20034;-66
2022/10/08 04:07:04;;;;;;;8.73;5.78;;;;;;;14.22;77.25;100936.84;4147246;28;20115;-66
2022/10/08 04:09:09;;;;;;;11.55;6.25;;;;;;;14.22;77.34;100942.06;4146280;28;20045;-66
2022/10/08 04:11:13;;;;;;;;;;;;;;;14.03;78.15;100946.28;4156641;28;20088;-66
2022/10/08 04:13:18;;;;;;;8.30;4.43;;;;;;;14.05;78.59;100954.13;4156869;28;19928;-66
2022/10/08 04:15:20;;;;;;;;;;;;;;;13.86;78.71;100951.34;4147258;28;20507;-66
2022/10/08 04:17:23;;;;;;;8.27;5.05;;;;;;;13.91;78.42;100948.78;4163208;28;19922;-66
2022/10/08 04:19:26;;;;;;;12.93;5.03;;;;;;;13.96;78.20;100947.97;4147064;28;20556;-66
2022/10/08 04:21:30;;;;;;;13.35;5.72;;;;;;;13.98;77.41;100952.34;4161817;28;20029;-65
2022/10/08 04:23:35;;;;;;;11.48;4.90;;;;;;;13.98;77.77;100947.09;4155103;28;20483;-65
2022/10/08 04:25:37;;;;;;;;;;;;;;;13.83;77.66;100943.50;4164978;28;20041;-65
2022/10/08 04:27:40;;;;;;;12.98;5.57;;;;;;;13.84;78.11;100946.97;4130396;28;19921;-65
2022/10/08 04:29:44;;;;;;;10.85;5.60;;;;;;;13.88;78.09;100947.00;4147212;28;20077;-66
2022/10/08 04:31:47;;;;;;;13.15;5.20;;;;;;;13.88;77.79;100936.56;4146817;28;20084;-66
2022/10/08 04:33:51;;;;;;;7.97;4.43;;;;;;;13.90;77.35;100950.53;4160233;28;20072;-66
2022/10/08 04:35:54;;;;;;;11.93;5.13;;;;;;;13.89;77.63;100948.75;4151668;28;20042;-65
2022/10/08 04:38:01;;;;;;;16.90;5.80;;;;;;;13.90;77.54;100950.53;4148226;28;20096;-66
2022/10/08 04:40:05;;;;;;;7.30;5.00;;;;;;;13.91;77.25;100947.03;4160043;28;20103;-66
2022/10/08 04:42:08;;;;;;;13.35;5.80;;;;;;;13.90;77.20;100945.31;4155073;28;20045;-66
2022/10/08 04:44:11;;;;;;;9.30;5.30;;;;;;;13.86;77.72;100943.50;4152075;28;20566;-65
2022/10/08 04:46:17;;;;;;;10.65;5.38;;;;;;;13.83;77.24;100953.94;4146033;28;20077;-65
2022/10/08 04:48:20;;;;;;;11.65;5.85;;;;;;;13.80;77.02;100948.69;4157545;28;20129;-64
2022/10/08 04:50:22;;;;;;;12.65;6.57;;;;;;;13.78;78.00;100951.31;4140686;28;20038;-64
2022/10/08 04:52:25;;;;;;;9.55;5.30;;;;;;;13.78;76.92;100951.31;4163105;28;20410;-64
2022/10/08 04:54:28;;;;;;;11.98;5.40;;;;;;;13.78;77.45;100953.03;4162612;28;20041;-64
2022/10/08 04:56:33;;;;;;;10.27;6.03;;;;;;;13.77;77.71;100959.13;4147522;28;20038;-64
2022/10/08 04:58:36;;;;;;;10.98;6.13;;;;;;;13.77;77.23;100954.75;4155528;28;20038;-64
2022/10/08 05:00:39;;;;;;;10.82;5.90;;;;;;;13.75;77.59;100959.09;4160033;28;20042;-64
2022/10/08 05:02:43;;;;;;;8.77;5.30;;;;;;;13.73;77.55;100962.56;4150459;28;20067;-65
2022/10/08 05:04:46;;;;;;;8.93;5.25;;;;;;;13.71;78.27;100959.94;4155272;28;20068;-65
2022/10/08 05:06:49;;;;;;;19.35;5.78;;;;;;;13.72;77.86;100955.59;4147943;28;20101;-65
2022/10/08 05:08:53;;;;;;;7.15;4.97;;;;;;;13.71;77.75;100959.03;4156378;28;20038;-64
2022/10/08 05:10:55;;;;;;;12.00;5.13;;;;;;;13.71;77.70;100964.28;4163997;28;20091;-64
2022/10/08 05:12:58;;;;;;;13.25;7.05;;;;;;;13.69;77.05;100966.00;4163764;28;20458;-64
2022/10/08 05:15:01;;;;;;;13.15;6.55;;;;;;;13.64;77.86;100965.97;4162995;28;20099;-64
2022/10/08 05:17:04;;;;;;;10.73;5.75;;;;;;;13.63;77.67;100966.81;4162428;28;20033;-64
2022/10/08 05:19:08;;;;;;;12.60;5.70;;;;;;;13.61;77.49;100972.03;4154489;28;20120;-64
2022/10/08 05:21:12;;;;;;;12.88;5.82;;;;;;;13.61;76.78;100963.34;4162395;28;20160;-62
2022/10/08 05:23:15;;;;;;;15.85;6.63;;;;;;;13.56;76.64;100968.47;4152468;28;20037;-62
2022/10/08 05:25:18;;;;;;;11.93;6.22;;;;;;;13.54;76.76;100970.22;4161648;28;20053;-64
2022/10/08 05:27:20;;;;;;;10.70;6.28;;;;;;;13.54;76.96;100975.44;4146143;28;20042;-65
2022/10/08 05:29:23;;;;;;;14.07;7.22;;;;;;;13.50;76.76;100971.03;4155555;28;20065;-63
2022/10/08 05:31:28;;;;;;;18.73;7.13;;;;;;;13.48;76.07;100971.88;4146142;28;20041;-64
2022/10/08 05:33:31;;;;;;;;;;;;;;;13.30;76.84;100985.59;4160455;28;20141;-66
2022/10/08 05:35:38;;;;;;;11.23;6.03;;;;;;;13.36;76.70;100980.47;4163742;28;20292;-66
2022/10/08 05:37:41;;;;;;;14.77;6.00;;;;;;;13.35;76.55;100974.38;4163655;28;20037;-62
2022/10/08 05:39:44;;;;;;;11.05;5.72;;;;;;;13.36;76.90;100980.47;4163910;28;20096;-65
2022/10/08 05:41:47;;;;;;;12.10;5.78;;;;;;;13.30;76.47;100985.59;4161744;28;20100;-64
2022/10/08 05:43:50;;;;;;;12.77;6.20;;;;;;;13.25;77.10;100991.63;4153185;28;20562;-65
2022/10/08 05:45:53;;;;;;;11.85;5.80;;;;;;;13.26;76.77;100992.53;4136262;28;20044;-63
2022/10/08 05:47:56;;;;;;;12.00;6.57;;;;;;;13.29;76.64;100987.34;4147683;28;20049;-65
2022/10/08 05:49:59;;;;;;;14.43;6.22;;;;;;;13.28;76.56;100998.63;4150112;28;20042;-64
2022/10/08 05:52:03;;;;;;;12.75;6.45;;;;;;;13.27;75.97;101000.38;4163747;28;20049;-63
2022/10/08 05:54:06;;;;;;;12.05;6.05;;;;;;;13.21;76.01;100995.06;4145238;28;20041;-65
2022/10/08 05:56:10;;;;;;;10.45;5.22;;;;;;;13.19;76.21;101004.63;4146240;28;20042;-65
2022/10/08 05:58:13;;;;;;;9.57;6.07;;;;;;;13.15;76.50;101000.22;4144667;28;20046;-67
2022/10/08 06:00:16;;;;;;;9.43;5.53;;;;;;;13.14;76.79;101008.03;4159800;28;20041;-68
2022/10/08 06:02:20;;;;;;;11.57;5.80;;;;;;;13.14;76.77;101014.13;4151597;28;20499;-64
2022/10/08 06:04:22;;;;;;;12.35;5.95;;;;;;;13.13;77.02;101012.38;4150334;28;20042;-64
2022/10/08 06:06:26;;;;;;;12.52;5.88;;;;;;;13.14;76.82;101018.47;4156978;28;20545;-64
2022/10/08 06:08:30;;;;;;;12.52;5.75;;;;;;;13.14;77.14;101015.84;4157092;28;20044;-65
2022/10/08 06:10:33;;;;;;;16.88;6.95;;;;;;;13.14;77.12;101018.47;4159432;28;20435;-65
2022/10/08 06:12:36;;;;;;;12.88;6.32;;;;;;;13.14;77.36;101021.97;4157159;28;20037;-65
2022/10/08 06:14:39;;;;;;;10.27;6.30;;;;;;;13.19;76.62;101019.41;4132209;28;20141;-65
2022/10/08 06:16:42;;;;;;;11.40;5.93;;;;;;;13.19;76.68;101029.84;4166707;28;20049;-65
2022/10/08 06:18:45;;;;;;;12.57;5.93;;;;;;;13.16;77.06;101025.47;4145229;28;20582;-65
2022/10/08 06:20:48;;;;;;;11.70;6.20;;;;;;;13.16;77.38;101028.06;4151829;28;20037;-65
2022/10/08 06:22:51;;;;;;;10.40;5.43;;;;;;;13.20;76.89;101035.09;4132939;28;20046;-65
2022/10/08 06:24:57;;;;;;;11.02;5.65;;;;;;;13.19;76.43;101035.94;4149462;28;20054;-65
2022/10/08 06:27:01;;;;;;;13.98;7.10;;;;;;;13.20;76.78;101032.47;4150359;28;20049;-65
2022/10/08 06:29:06;;;;;;;15.53;6.37;;;;;;;13.17;77.37;101037.66;4150195;28;20072;-65
2022/10/08 06:31:09;;;;;;;11.17;5.43;;;;;;;13.12;77.34;101041.94;4155094;28;20670;-65
2022/10/08 06:33:12;;;;;;;8.13;5.05;;;;;;;13.12;77.14;101036.72;4137167;28;20321;-66
2022/10/08 06:35:15;;;;;;;10.65;5.07;;;;;;;13.17;77.29;101040.28;4148524;28;20042;-65
2022/10/08 06:37:17;;;;;;;8.73;5.85;;;;;;;13.20;76.99;101039.41;4132586;28;20108;-65
2022/10/08 06:39:20;;;;;;;13.65;5.82;;;;;;;13.19;76.78;101041.16;4132650;28;20038;-65
2022/10/08 06:41:25;;;;;;;8.20;5.80;;;;;;;13.21;77.25;101044.66;4132544;28;20050;-65
2022/10/08 06:43:28;;;;;;;12.13;5.43;;;;;;;13.21;77.25;101047.28;4157137;28;20534;-65
2022/10/08 06:45:31;;;;;;;16.08;5.68;;;;;;;13.23;76.98;101044.72;4157998;28;20042;-65
2022/10/08 06:47:34;;;;;;;11.13;6.07;;;;;;;13.18;77.04;101052.47;4132509;28;20101;-65
2022/10/08 06:49:38;;;;;;;11.60;5.65;;;;;;;13.19;76.98;101059.44;4132431;28;20046;-65
2022/10/08 06:51:41;;;;;;;11.30;5.82;;;;;;;13.18;77.36;101052.47;4149914;28;20397;-64
2022/10/08 06:53:46;;;;;;;9.65;5.68;;;;;;;13.21;76.87;101055.09;4132980;28;20097;-64
2022/10/08 06:55:49;;;;;;;10.88;6.95;;;;;;;13.23;76.75;101063.00;4132410;28;20463;-65
2022/10/08 06:57:53;;;;;;;11.95;5.95;;;;;;;13.23;77.04;101068.22;4166172;28;20083;-65
2022/10/08 06:59:57;;;;;;;14.57;6.80;;;;;;;13.23;76.94;101074.28;4158413;28;20033;-65
2022/10/08 07:02:00;;;;;;;9.27;5.73;;;;;;;13.20;77.04;101076.88;4161725;28;20041;-65
2022/10/08 07:04:05;;;;;;;11.10;6.13;;;;;;;13.23;77.08;101082.13;4143707;28;20304;-65
2022/10/08 07:06:10;;;;;;;10.45;6.28;;;;;;;13.24;76.74;101078.66;4151275;28;21416;-65
2022/10/08 07:08:13;;;;;;;10.45;6.40;;;;;;;13.25;77.02;101079.53;4159269;28;20438;-65
2022/10/08 07:10:16;;;;;;;9.70;6.18;;;;;;;13.28;77.13;101083.06;4155746;28;20034;-65
2022/10/08 07:12:20;;;;;;;13.97;6.20;;;;;;;13.30;76.90;101084.81;4122331;28;20523;-65
2022/10/08 07:14:24;;;;;;;15.13;6.13;;;;;;;13.34;76.51;101090.13;4150200;28;20045;-65
2022/10/08 07:16:28;;;;;;;15.35;6.80;;;;;;;13.35;76.27;101080.56;4140492;28;20112;-65
2022/10/08 07:18:32;;;;;;;12.57;6.07;;;;;;;13.37;77.02;101089.28;4161148;28;20061;-65
2022/10/08 07:20:35;;;;;;;13.98;6.82;;;;;;;13.38;76.88;101091.06;4156456;28;20114;-65
2022/10/08 07:22:37;;;;;;;16.70;6.03;;;;;;;13.41;76.77;101091.09;4149850;28;20045;-65
2022/10/08 07:24:40;;;;;;;14.85;6.10;;;;;;;13.41;76.60;101094.56;4140705;28;20081;-65
2022/10/08 07:26:43;;;;;;;17.27;6.43;;;;;;;13.44;76.47;101091.13;4156937;28;20049;-65
2022/10/08 07:28:50;;;;;;;10.18;4.75;;;;;;;13.48;76.25;101097.25;4154248;28;20451;-65
2022/10/08 07:30:54;;;;;;;13.02;6.70;;;;;;;13.51;76.61;101097.31;4140582;28;20092;-65
2022/10/08 07:32:59;;;;;;;18.23;6.05;;;;;;;13.48;75.85;101108.59;4152119;28;20068;-65
2022/10/08 07:35:02;;;;;;;11.18;5.85;;;;;;;13.47;75.31;101106.84;4151075;28;20041;-65
2022/10/08 07:37:04;;;;;;;11.85;5.15;;;;;;;13.48;75.49;101108.59;4156257;28;20045;-65
2022/10/08 07:39:11;;;;;;;17.20;5.70;;;;;;;13.51;75.50;101108.63;4156910;28;20080;-66
2022/10/08 07:41:14;;;;;;;13.13;5.85;;;;;;;13.54;75.17;101113.88;4155400;28;20034;-65
2022/10/08 07:43:17;;;;;;;10.75;5.68;;;;;;;13.58;74.49;101110.47;4156730;28;20040;-65
2022/10/08 07:45:21;;;;;;;;;;;;;;;13.50;74.83;101112.09;4158834;28;20048;-65
2022/10/08 07:47:25;;;;;;;10.90;5.32;;;;;;;13.56;74.77;101112.16;4160061;28;20419;-65
2022/10/08 07:49:28;;;;;;;10.52;4.78;;;;;;;13.60;74.02;101107.88;4160855;28;20041;-65
2022/10/08 07:51:33;;;;;;;12.35;5.15;;;;;;;13.67;74.02;101111.41;4137260;28;20481;-64
2022/10/08 07:53:36;;;;;;;12.73;5.28;;;;;;;13.67;73.20;101114.03;4154494;28;20072;-66
2022/10/08 07:55:39;;;;;;;12.13;4.85;;;;;;;13.66;72.15;101121.00;4154837;28;20490;-65
2022/10/08 07:57:42;;;;;;;14.77;4.53;;;;;;;13.71;71.91;101121.94;4144194;28;20385;-65
2022/10/08 07:59:45;;;;;;;9.82;4.47;;;;;;;13.78;72.17;101120.25;4137886;28;20046;-65
2022/10/08 08:01:47;;;;;;;21.60;5.10;;;;;;;13.83;72.14;101118.59;4161000;28;20095;-65
2022/10/08 08:03:54;;;;;;;17.75;5.95;;;;;;;13.86;70.90;101126.47;4160688;28;20069;-65
2022/10/08 08:06:00;;;;;;;14.52;4.93;;;;;;;13.94;70.95;101127.44;4148674;28;20042;-65
2022/10/08 08:08:03;;;;;;;11.57;4.53;;;;;;;13.92;71.52;101123.91;4143013;28;20112;-65
2022/10/08 08:10:07;;;;;;;11.07;4.78;;;;;;;13.96;70.74;101122.22;4144956;28;20133;-65
2022/10/08 08:12:10;;;;;;;8.05;4.13;;;;;;;14.03;70.52;101125.78;4162723;28;20399;-65
2022/10/08 08:14:13;;;;;;;19.30;6.10;;;;;;;14.10;70.57;101125.84;4159224;28;20492;-65
2022/10/08 08:16:17;;;;;;;11.45;4.15;;;;;;;14.21;69.44;101120.75;4141594;28;20044;-65
2022/10/08 08:18:20;;;;;;;11.77;4.65;;;;;;;14.32;69.75;101132.19;4160049;28;20491;-65
2022/10/08 08:20:25;;;;;;;15.68;4.40;;;;;;;14.36;67.99;101132.22;4151384;28;20037;-65
2022/10/08 08:22:27;;;;;;;9.95;3.92;;;;;;;14.43;67.96;101127.03;4162085;28;20048;-66
2022/10/08 08:24:31;;;;;;;13.70;3.85;;;;;;;14.61;68.15;101131.59;4160269;28;20064;-65
2022/10/08 08:26:36;;;;;;;17.48;3.85;;;;;;;14.69;67.00;101139.53;4134967;28;20042;-65
2022/10/08 08:28:40;;;;;;;12.45;3.90;;;;;;;14.78;66.88;101133.47;4135791;28;20073;-65
2022/10/08 08:30:42;;;;;;;15.32;3.35;;;;;;;14.78;65.40;101142.19;4145732;28;20492;-65
2022/10/08 08:32:45;;;;;;;11.30;3.58;;;;;;;14.82;65.23;101146.59;4155403;28;20060;-65
2022/10/08 08:34:48;;;;;;;12.02;3.03;;;;;;;14.87;65.76;101144.00;4147230;28;20145;-65
2022/10/08 08:36:53;;;;;;;10.30;3.13;;;;;;;14.92;64.57;101144.94;4154178;28;20069;-65
2022/10/08 08:38:57;;;;;;;10.52;3.55;;;;;;;14.95;65.15;101147.56;4154316;28;20522;-65
2022/10/08 08:41:08;;;;;;;8.85;3.28;;;;;;;15.01;63.98;101150.22;4155892;28;20037;-65
2022/10/08 08:43:16;;;;;;;16.70;3.03;;;;;;;15.02;63.95;101145.84;4122055;28;20053;-66
2022/10/08 08:45:25;;;;;;;11.38;2.75;;;;;;;15.18;63.89;101144.22;4160669;28;20053;-65
2022/10/08 08:47:56;;;;;;;14.55;3.75;;;;;;;15.22;63.54;101145.13;4151766;28;20107;-65
2022/10/08 08:50:03;;;;;;;8.85;2.10;;;;;;;15.23;63.15;101153.00;4163851;28;20057;-65
2022/10/08 08:52:09;;;;;;;10.02;2.75;;;;;;;15.26;63.04;101146.88;4135181;28;20042;-65
2022/10/08 08:54:12;;;;;;;7.43;2.90;;;;;;;15.27;62.86;101159.13;4148489;28;20072;-65
2022/10/08 08:56:25;;;;;;;7.13;2.50;;;;;;;15.35;62.26;101153.06;4160944;28;20049;-65
2022/10/08 08:58:34;;;;;;;11.45;3.33;;;;;;;15.46;62.90;101155.75;4151889;28;20034;-65
2022/10/08 09:00:41;;;;;;;13.07;3.13;;;;;;;15.44;62.30;101151.38;4149414;28;20038;-65
2022/10/08 09:02:51;;;;;;;5.15;2.30;;;;;;;15.52;62.17;101147.91;4159112;28;20175;-66
2022/10/08 09:04:56;;;;;;;10.10;2.80;;;;;;;15.58;62.34;101154.03;4136592;28;20102;-65
2022/10/08 09:07:03;;;;;;;10.40;2.60;;;;;;;15.63;62.08;101154.94;4154781;28;20046;-65
2022/10/08 09:09:20;;;;;;;11.88;2.70;;;;;;;15.75;62.21;101151.50;4142840;28;20046;-65
2022/10/08 09:11:23;;;;;;;7.43;2.45;;;;;;;15.85;62.02;101153.31;4157835;28;20045;-65
2022/10/08 09:13:30;;;;;;;7.43;2.10;;;;;;;15.92;61.17;101154.22;4132093;28;20077;-65
2022/10/08 09:15:36;;;;;;;9.15;2.65;;;;;;;16.05;61.56;101156.88;4152621;28;20327;-65
2022/10/08 09:17:40;;;;;;;9.77;2.25;;;;;;;15.99;58.63;101153.34;4158525;28;20503;-65
2022/10/08 09:19:44;;;;;;;8.27;1.92;;;;;;;15.92;57.98;101149.00;4150148;28;20496;-65
2022/10/08 09:21:47;;;;;;;7.32;1.88;;;;;;;15.95;58.13;101147.22;4163490;28;20480;-65
2022/10/08 09:23:49;;;;;;;5.85;1.90;;;;;;;16.10;58.19;101156.88;4159950;28;20034;-65
2022/10/08 09:25:58;;;;;;;7.60;2.22;;;;;;;16.20;57.52;101152.53;4158131;28;20112;-66
2022/10/08 09:28:03;;;;;;;6.55;1.80;;;;;;;16.18;56.82;101149.91;4159506;28;20045;-66
2022/10/08 09:30:34;;;;;;;4.95;1.60;;;;;;;16.29;55.77;101154.31;4139022;28;20571;-65
2022/10/08 09:32:39;;;;;;;8.50;1.58;;;;;;;16.31;55.52;101156.06;4158809;28;20061;-68
2022/10/08 09:34:42;;;;;;;6.88;1.95;;;;;;;16.48;55.81;101157.84;4152620;28;20177;-69
2022/10/08 09:36:47;;;;;;;6.78;1.85;;;;;;;16.74;55.04;101161.34;4140821;28;20100;-66
2022/10/08 09:38:58;;;;;;;5.70;1.70;;;;;;;16.82;55.60;101168.34;4141828;28;20065;-66